Time;durP1;ratioP1;P1;durP2;ratioP2;P2;SDS_P1;SDS_P2;PMS_P1;PMS_P2;Temp;Humidity;BMP_temperature;BMP_pressure;BME280_temperature;BME280_humidity;BME280_pressure;Samples;Min_cycle;Max_cycle;Signal;HPM_P1;HPM_P2
2022/07/14 00:00:16;;;;;;;4.35;3.60;;;21.40;99.90;;;-141.84;57.03;20785.44;5031001;28;20232;-61
2022/07/14 00:02:46;;;;;;;3.78;3.47;;;21.30;99.90;;;-141.84;56.93;20785.44;5031154;28;20717;-61
2022/07/14 00:05:14;;;;;;;3.85;3.50;;;21.20;99.90;;;-141.84;55.98;20826.09;5031380;28;20206;-61
2022/07/14 00:07:43;;;;;;;3.85;3.50;;;21.20;99.90;;;-141.84;56.14;20791.53;5030551;28;20729;-60
2022/07/14 00:10:11;;;;;;;4.72;3.65;;;21.20;99.90;;;-141.84;55.97;20815.91;5030523;28;20337;-62
2022/07/14 00:12:39;;;;;;;3.78;3.47;;;21.10;99.90;;;-141.84;56.08;20773.22;5030980;28;20425;-61
2022/07/14 00:15:09;;;;;;;4.30;3.90;;;21.10;99.90;;;-141.84;55.64;20824.06;5030883;28;20241;-61
2022/07/14 00:17:37;;;;;;;4.18;3.70;;;21.20;99.90;;;-141.84;55.41;20844.38;5030489;28;20301;-62
2022/07/14 00:20:08;;;;;;;4.32;3.92;;;21.10;99.90;;;-141.84;54.89;20817.94;5030763;28;20521;-62
2022/07/14 00:22:37;;;;;;;4.10;3.65;;;21.10;99.90;;;-141.84;55.51;20797.63;5030650;28;20676;-62
2022/07/14 00:25:06;;;;;;;4.22;3.92;;;21.10;99.90;;;-141.84;55.72;20824.06;5030220;28;20313;-62
2022/07/14 00:27:36;;;;;;;4.43;4.05;;;21.10;99.90;;;-141.84;56.75;20773.22;5030626;28;20234;-61
2022/07/14 00:30:06;;;;;;;3.95;3.65;;;21.00;99.90;;;-141.84;57.28;20769.16;5030810;28;20222;-61
2022/07/14 00:32:35;;;;;;;4.95;3.90;;;20.80;99.90;;;-141.84;58.14;20704.13;5030201;28;20702;-61
2022/07/14 00:35:05;;;;;;;4.50;3.80;;;20.80;99.90;;;-141.84;58.77;20702.09;5030521;28;20761;-61
2022/07/14 00:37:35;;;;;;;4.05;3.75;;;20.70;99.90;;;-141.84;59.20;20614.66;5030732;28;20226;-61
2022/07/14 00:40:05;;;;;;;3.60;3.30;;;20.60;99.90;;;-141.84;59.08;20635.00;5030023;28;20228;-63
2022/07/14 00:42:36;;;;;;;3.92;3.63;;;20.50;99.90;;;-141.84;59.13;20647.19;5030390;28;20305;-63
2022/07/14 00:45:09;;;;;;;3.95;3.65;;;20.40;99.90;;;-141.84;58.68;20675.66;5030393;28;20218;-62
2022/07/14 00:47:38;;;;;;;4.13;3.83;;;20.40;99.90;;;-141.84;57.59;20671.59;5030285;28;20225;-61
2022/07/14 00:50:09;;;;;;;4.82;4.13;;;20.40;99.90;;;-141.84;56.87;20691.91;5030265;28;20293;-62
2022/07/14 00:52:43;;;;;;;3.95;3.65;;;20.50;99.90;;;-141.84;56.93;20700.03;5030368;28;20768;-63
2022/07/14 00:55:13;;;;;;;4.15;3.75;;;20.50;99.90;;;-141.84;57.28;20657.34;5029963;28;20324;-62
2022/07/14 00:57:42;;;;;;;3.80;3.50;;;20.40;99.90;;;-141.84;57.40;20639.06;5029946;28;20308;-63
2022/07/14 01:00:14;;;;;;;3.75;3.45;;;20.30;99.90;;;-141.84;56.39;20673.63;5029864;28;20229;-61
2022/07/14 01:02:45;;;;;;;3.60;3.30;;;20.40;99.90;;;-141.84;55.58;20675.66;5029644;28;20312;-60
2022/07/14 01:05:14;;;;;;;3.90;3.22;;;20.40;99.90;;;-141.84;56.41;20675.66;5029989;28;20194;-61
2022/07/14 01:07:43;;;;;;;4.07;3.50;;;20.40;99.90;;;-141.84;55.20;20708.19;5029665;28;20321;-61
2022/07/14 01:10:12;;;;;;;4.63;3.65;;;20.40;99.90;;;-141.84;55.42;20683.78;5029829;28;20588;-62
2022/07/14 01:12:45;;;;;;;4.60;3.60;;;20.40;99.90;;;-141.84;55.46;20683.78;5029119;28;20309;-61
2022/07/14 01:15:15;;;;;;;3.90;3.47;;;20.30;99.90;;;-141.84;55.58;20669.56;5029813;28;20226;-62
2022/07/14 01:17:44;;;;;;;3.58;3.10;;;20.30;99.90;;;-141.84;55.92;20628.91;5029896;28;20228;-62
2022/07/14 01:20:12;;;;;;;3.60;3.30;;;20.20;99.90;;;-141.84;56.29;20637.03;5029202;28;20248;-62
2022/07/14 01:22:42;;;;;;;3.92;3.40;;;20.10;99.90;;;-141.84;56.22;20620.78;5029768;28;20324;-62
2022/07/14 01:25:11;;;;;;;3.65;3.10;;;20.10;99.90;;;-141.84;56.01;20669.56;5029574;28;20257;-62
2022/07/14 01:27:39;;;;;;;3.38;3.17;;;20.10;99.90;;;-141.84;56.05;20620.78;5029549;28;20240;-62
2022/07/14 01:30:10;;;;;;;3.65;3.17;;;20.00;99.90;;;-141.84;55.52;20596.38;5028340;28;20324;-62
2022/07/14 01:32:38;;;;;;;3.53;3.22;;;20.00;99.90;;;-141.84;55.38;20620.78;5029472;28;20293;-62
2022/07/14 01:35:08;;;;;;;3.78;3.47;;;19.90;99.90;;;-141.84;55.21;20639.06;5029914;28;20206;-62
2022/07/14 01:37:36;;;;;;;3.70;3.40;;;19.90;99.90;;;-141.84;54.43;20679.72;5029196;28;20368;-61
2022/07/14 01:40:08;;;;;;;4.63;3.30;;;19.90;99.90;;;-141.84;54.82;20635.00;5029256;28;20252;-62
2022/07/14 01:42:36;;;;;;;3.65;3.33;;;20.00;99.90;;;-141.84;54.86;20620.78;5029367;28;20275;-62
2022/07/14 01:45:07;;;;;;;3.38;3.08;;;19.90;99.90;;;-141.84;54.14;20679.72;5029478;28;20761;-61
2022/07/14 01:47:35;;;;;;;3.58;3.25;;;20.00;99.90;;;-141.84;54.21;20708.19;5029639;28;20282;-61
2022/07/14 01:50:04;;;;;;;3.35;3.05;;;20.00;99.90;;;-141.84;53.93;20695.97;5029803;28;20294;-62
2022/07/14 01:52:32;;;;;;;5.45;3.60;;;20.00;99.90;;;-141.84;53.75;20710.22;5029163;28;20321;-61
2022/07/14 01:55:00;;;;;;;3.75;3.45;;;20.10;99.90;;;-141.84;53.73;20693.94;5029118;28;20313;-62
2022/07/14 01:57:29;;;;;;;3.53;3.22;;;20.00;99.90;;;-141.84;54.24;20667.53;5029094;28;20217;-62
2022/07/14 01:59:58;;;;;;;4.05;3.65;;;20.00;99.90;;;-141.84;53.93;20647.19;5029343;28;20663;-62
2022/07/14 02:02:26;;;;;;;4.50;3.50;;;20.00;99.90;;;-141.84;54.27;20659.38;5028756;28;20289;-59
2022/07/14 02:04:54;;;;;;;4.28;3.50;;;20.00;99.90;;;-141.84;54.39;20663.47;5029893;28;20205;-62
2022/07/14 02:07:22;;;;;;;3.42;3.13;;;19.90;99.90;;;-141.84;54.48;20653.28;5029157;28;20309;-62
2022/07/14 02:12:38;;;;;;;3.50;3.20;;;19.80;99.90;;;-141.84;54.90;20647.19;5029011;28;20264;-61
2022/07/14 02:15:07;;;;;;;6.47;3.40;;;19.80;99.90;;;-141.84;55.00;20614.66;5029262;28;20232;-62
2022/07/14 02:17:36;;;;;;;3.40;3.10;;;19.80;99.90;;;-141.84;54.61;20639.06;5028851;28;20280;-62
2022/07/14 02:20:06;;;;;;;3.25;2.95;;;19.80;99.90;;;-141.84;55.14;20651.25;5029268;28;20241;-62
2022/07/14 02:22:34;;;;;;;3.83;3.45;;;19.70;99.90;;;-141.84;54.54;20626.88;5028883;28;20236;-64
2022/07/14 02:25:02;;;;;;;4.32;2.92;;;19.80;99.90;;;-141.84;55.35;20606.53;5028908;28;20230;-62
2022/07/14 02:27:30;;;;;;;3.75;3.28;;;19.80;99.90;;;-141.84;54.96;20639.06;5029110;28;20330;-63
2022/07/14 02:30:00;;;;;;;3.33;3.05;;;19.70;99.90;;;-141.84;55.29;20586.22;5029181;28;20234;-63
2022/07/14 02:32:31;;;;;;;4.43;3.10;;;19.70;99.90;;;-141.84;55.74;20571.97;5030637;28;20244;-61
2022/07/14 02:34:59;;;;;;;3.50;3.20;;;19.70;99.90;;;-141.84;55.90;20602.47;5033162;28;20585;-60
2022/07/14 02:37:27;;;;;;;4.03;3.40;;;19.60;99.90;;;-141.84;55.68;20602.47;5032345;28;20233;-62
2022/07/14 02:39:55;;;;;;;4.05;3.42;;;19.60;99.90;;;-141.84;56.26;20565.88;5032689;28;20641;-61
2022/07/14 02:42:24;;;;;;;4.53;3.70;;;19.60;99.90;;;-141.84;56.25;20578.09;5032409;28;20226;-62
2022/07/14 02:44:52;;;;;;;4.85;3.83;;;19.60;99.90;;;-141.84;56.37;20559.78;5032360;28;20230;-62
2022/07/14 02:47:21;;;;;;;4.57;3.40;;;19.50;99.90;;;-141.84;56.75;20574.00;5032952;28;20205;-61
2022/07/14 02:49:49;;;;;;;5.15;3.70;;;19.50;99.90;;;-141.84;55.48;20635.00;5032548;28;20222;-61
2022/07/14 02:52:17;;;;;;;4.32;3.50;;;19.50;99.90;;;-141.84;55.99;20586.22;5031990;28;20314;-61
2022/07/14 02:54:45;;;;;;;3.97;3.65;;;19.60;99.90;;;-141.84;56.89;20539.47;5031913;28;20264;-61
2022/07/14 02:57:14;;;;;;;3.60;3.30;;;19.40;99.90;;;-141.84;57.17;20551.66;5031959;28;20781;-61
2022/07/14 02:59:42;;;;;;;4.25;3.22;;;19.40;99.90;;;-141.84;57.28;20545.56;5032386;28;20226;-61
2022/07/14 03:02:10;;;;;;;3.13;2.83;;;19.40;99.90;;;-141.84;57.66;20513.03;5032339;28;20202;-62
2022/07/14 03:04:40;;;;;;;3.60;3.30;;;19.40;99.90;;;-141.84;57.96;20541.50;5031835;28;20304;-61
2022/07/14 03:07:08;;;;;;;4.32;3.53;;;19.30;99.90;;;-141.84;57.73;20513.03;5031820;28;20271;-61
2022/07/14 03:09:36;;;;;;;3.85;3.45;;;19.30;99.90;;;-141.84;58.04;20531.31;5032057;28;20604;-62
2022/07/14 03:12:05;;;;;;;4.03;2.85;;;19.20;99.90;;;-141.84;57.76;20541.50;5031856;28;20261;-63
2022/07/14 03:14:33;;;;;;;4.10;3.05;;;19.20;99.90;;;-141.84;58.72;20452.06;5032187;28;20490;-62
2022/07/14 03:17:01;;;;;;;3.08;2.78;;;19.10;99.90;;;-141.84;58.54;20500.84;5032609;28;20285;-61
2022/07/14 03:19:29;;;;;;;3.88;3.30;;;19.10;99.90;;;-141.84;58.09;20506.94;5031463;28;20229;-61
2022/07/14 03:21:59;;;;;;;3.50;2.97;;;19.10;99.90;;;-141.84;58.39;20492.72;5031688;28;20325;-62
2022/07/14 03:24:27;;;;;;;3.88;2.95;;;19.10;99.90;;;-141.84;58.13;20478.47;5031383;28;20308;-63
2022/07/14 03:26:55;;;;;;;3.63;3.20;;;19.10;99.90;;;-141.84;58.21;20521.16;5031642;28;20631;-62
2022/07/14 03:29:24;;;;;;;2.92;2.45;;;19.20;99.90;;;-141.84;58.49;20488.63;5031915;28;20206;-60
2022/07/14 03:31:52;;;;;;;3.42;3.03;;;19.00;99.90;;;-141.84;57.58;20513.03;5031876;28;20297;-61
2022/07/14 03:34:21;;;;;;;2.60;2.33;;;19.10;99.90;;;-141.84;57.77;20519.13;5031327;28;20330;-61
2022/07/14 03:36:49;;;;;;;4.03;2.60;;;19.10;99.90;;;-141.84;58.35;20496.78;5031365;28;20602;-61
2022/07/14 03:39:18;;;;;;;4.85;2.58;;;19.10;99.90;;;-141.84;58.35;20504.91;5030996;28;20229;-61
2022/07/14 03:41:46;;;;;;;2.97;2.60;;;19.10;99.90;;;-141.84;57.76;20529.28;5031019;28;20304;-62
2022/07/14 03:44:15;;;;;;;2.67;2.47;;;19.10;99.90;;;-141.84;58.20;20521.16;5031317;28;20218;-62
2022/07/14 03:46:43;;;;;;;3.90;2.70;;;19.10;99.90;;;-141.84;58.55;20480.50;5031034;28;20280;-62
2022/07/14 03:49:11;;;;;;;3.20;2.90;;;19.10;99.90;;;-141.84;57.53;20521.16;5031145;28;20304;-61
2022/07/14 03:51:42;;;;;;;2.53;2.22;;;19.20;99.90;;;-141.84;57.33;20547.59;5030928;28;20855;-61
2022/07/14 03:54:11;;;;;;;3.92;2.70;;;19.30;99.90;;;-141.84;57.94;20541.50;5030685;28;20321;-62
2022/07/14 03:56:41;;;;;;;2.63;2.42;;;19.30;99.90;;;-141.84;57.51;20549.63;5030998;28;20202;-61
2022/07/14 03:59:10;;;;;;;2.70;2.47;;;19.40;99.90;;;-141.84;56.42;20606.53;5031315;28;20606;-60
2022/07/14 04:01:39;;;;;;;2.85;2.65;;;19.50;99.90;;;-141.84;55.33;20655.31;5030872;28;20664;-61
2022/07/14 04:04:07;;;;;;;3.25;2.95;;;19.70;99.90;;;-141.84;55.54;20643.13;5030804;28;20304;-64
2022/07/14 04:06:35;;;;;;;3.00;2.70;;;19.80;99.90;;;-141.84;55.02;20639.06;5030693;28;20240;-63
2022/07/14 04:09:05;;;;;;;3.65;2.65;;;19.90;99.90;;;-141.84;55.09;20671.59;5030687;28;20272;-62
2022/07/14 04:11:33;;;;;;;3.45;2.60;;;19.90;99.90;;;-141.84;55.17;20673.63;5030599;28;20202;-62
2022/07/14 04:14:03;;;;;;;3.28;2.90;;;20.00;99.90;;;-141.84;54.79;20673.63;5031074;28;20244;-60
2022/07/14 04:16:31;;;;;;;2.60;2.40;;;20.00;99.90;;;-141.84;55.57;20651.25;5030452;28;20789;-62
2022/07/14 04:18:59;;;;;;;3.08;2.70;;;20.00;99.90;;;-141.84;56.13;20657.34;5030320;28;20640;-62
2022/07/14 04:21:27;;;;;;;4.22;2.90;;;20.00;99.90;;;-141.84;55.40;20693.94;5030174;28;20224;-61
2022/07/14 04:23:55;;;;;;;4.07;2.83;;;20.00;99.90;;;-141.84;56.06;20630.94;5030004;28;20218;-63
2022/07/14 04:26:23;;;;;;;4.78;2.72;;;19.80;99.90;;;-141.84;56.86;20569.94;5030619;28;20301;-61
2022/07/14 04:28:52;;;;;;;3.05;2.75;;;19.80;99.90;;;-141.84;55.31;20667.53;5030850;28;20290;-61
2022/07/14 04:31:22;;;;;;;3.15;2.55;;;19.80;99.90;;;-141.84;56.43;20616.69;5030208;28;20728;-62
2022/07/14 04:33:51;;;;;;;4.22;2.50;;;19.70;99.90;;;-141.84;55.91;20614.66;5030293;28;20238;-63
2022/07/14 04:36:19;;;;;;;3.58;2.60;;;19.70;99.90;;;-141.84;55.83;20584.19;5030004;28;20590;-62
2022/07/14 04:38:47;;;;;;;2.47;2.28;;;19.60;99.90;;;-141.84;55.94;20584.19;5029875;28;20250;-61
2022/07/14 04:41:15;;;;;;;3.05;2.50;;;19.50;99.90;;;-141.84;54.95;20663.47;5030635;28;20273;-62
2022/07/14 04:43:43;;;;;;;4.30;2.17;;;19.70;99.90;;;-141.84;53.71;20691.91;5030083;28;20658;-61
2022/07/14 04:46:11;;;;;;;2.45;1.92;;;19.80;99.90;;;-141.84;52.71;20710.22;5030440;28;20256;-62
2022/07/14 04:54:13;;;;;;;2.65;1.80;;;19.90;99.90;;;-141.84;51.64;20742.75;5029803;28;20226;-61
2022/07/14 04:56:41;;;;;;;2.00;1.90;;;20.00;99.90;;;-141.84;52.21;20679.72;5030518;28;20268;-61
2022/07/14 04:59:27;;;;;;;1.95;1.80;;;19.90;99.90;;;-141.84;51.63;20702.09;5030132;28;20206;-60
2022/07/14 05:01:55;;;;;;;2.35;1.80;;;19.90;99.90;;;-141.84;50.29;20748.84;5030886;28;20743;-60
2022/07/14 05:04:25;;;;;;;2.97;1.90;;;20.00;99.90;;;-141.84;50.35;20756.97;5030301;28;20236;-60
2022/07/14 05:06:55;;;;;;;2.10;1.90;;;20.10;99.90;;;-141.84;49.91;20793.56;5030305;28;20675;-61
2022/07/14 05:09:25;;;;;;;2.17;1.80;;;20.20;99.90;;;-141.84;49.60;20817.94;5030271;28;20276;-61
2022/07/14 05:11:54;;;;;;;2.40;1.83;;;20.30;99.90;;;-141.84;50.11;20797.63;5030372;28;20224;-62
2022/07/14 05:14:22;;;;;;;2.90;2.17;;;20.20;99.90;;;-141.84;50.28;20767.13;5030301;28;20243;-62
2022/07/14 05:16:50;;;;;;;3.38;2.00;;;20.10;99.90;;;-141.84;50.50;20752.91;5030918;28;20217;-61
2022/07/14 05:19:40;;;;;;;4.90;1.88;;;20.10;99.90;;;-141.84;50.02;20777.28;5030209;28;20222;-60
2022/07/14 05:22:08;;;;;;;2.50;1.50;;;20.10;99.90;;;-141.84;50.07;20752.91;5030138;28;20309;-61
2022/07/14 05:24:37;;;;;;;2.65;1.45;;;20.00;99.90;;;-141.84;49.58;20783.41;5029933;28;20643;-61
2022/07/14 05:27:06;;;;;;;5.65;1.80;;;20.10;99.90;;;-141.84;48.22;20862.69;5030422;28;20308;-61
2022/07/14 05:29:34;;;;;;;3.70;1.80;;;20.30;99.90;;;-141.84;46.43;20992.78;5030279;28;20202;-61
2022/07/14 05:32:02;;;;;;;4.43;1.85;;;20.80;99.90;;;-141.84;43.54;21202.19;5030953;28;20245;-61
2022/07/14 05:34:31;;;;;;;4.30;1.80;;;21.50;99.90;;;-141.84;43.83;21124.94;5030000;28;20230;-61
2022/07/14 05:37:01;;;;;;;3.53;1.65;;;21.70;99.90;;;-141.84;45.13;21027.34;5030111;28;20685;-61
2022/07/14 05:39:30;;;;;;;4.88;1.80;;;21.50;99.90;;;-141.84;45.37;21031.41;5029885;28;20749;-62
2022/07/14 05:41:58;;;;;;;7.65;2.15;;;21.40;99.90;;;-141.84;44.50;21029.38;5030342;28;20225;-62
2022/07/14 05:44:26;;;;;;;7.45;1.92;;;21.30;99.90;;;-141.84;44.74;21057.84;5029989;28;20659;-61
2022/07/14 05:46:55;;;;;;;6.40;2.10;;;21.40;99.90;;;-141.84;44.81;21037.50;5030497;28;20292;-61
2022/07/14 05:49:23;;;;;;;7.65;2.47;;;21.30;99.90;;;-141.84;45.76;21055.81;5029914;28;20815;-61
2022/07/14 05:51:51;;;;;;;5.55;2.17;;;21.20;99.90;;;-141.84;45.48;21013.13;5029593;28;20237;-62
2022/07/14 05:54:21;;;;;;;6.07;2.00;;;21.30;99.90;;;-141.84;45.71;21031.41;5029564;28;20226;-61
2022/07/14 05:56:51;;;;;;;6.00;1.92;;;21.30;99.90;;;-141.84;44.42;21094.44;5029685;28;20309;-61
2022/07/14 05:59:19;;;;;;;5.85;2.00;;;21.60;99.90;;;-141.84;45.10;21033.44;5030527;28;20206;-62
2022/07/14 06:02:08;;;;;;;6.00;2.00;;;21.40;99.90;;;-141.84;45.78;21019.22;5030206;28;20222;-61
2022/07/14 06:04:36;;;;;;;3.28;1.92;;;21.40;99.90;;;-141.84;45.83;21063.94;5029629;28;20236;-62
2022/07/14 06:07:04;;;;;;;5.55;2.03;;;21.20;99.90;;;-141.84;45.65;21072.06;5032492;28;20312;-63
2022/07/14 06:09:36;;;;;;;4.65;2.03;;;21.30;99.90;;;-141.84;46.79;20996.84;5033911;28;20312;-60
2022/07/14 06:12:06;;;;;;;4.20;2.25;;;21.00;99.90;;;-141.84;48.06;20927.72;5033948;28;20324;-61
2022/07/14 06:14:35;;;;;;;8.35;2.22;;;20.90;99.90;;;-141.84;48.35;20883.00;5033914;28;20190;-61
2022/07/14 06:17:03;;;;;;;5.93;2.28;;;20.70;99.90;;;-141.84;48.10;20950.09;5034314;28;20260;-61
2022/07/14 06:19:31;;;;;;;6.47;2.25;;;20.80;99.90;;;-141.84;48.26;20905.38;5033721;28;20226;-59
2022/07/14 06:21:59;;;;;;;7.07;2.33;;;20.60;99.90;;;-141.84;48.79;20846.41;5033641;28;20226;-62
2022/07/14 06:24:27;;;;;;;10.38;2.50;;;20.50;99.90;;;-141.84;49.10;20866.75;5033495;28;20313;-60
2022/07/14 06:26:57;;;;;;;7.32;2.50;;;20.50;99.90;;;-141.84;49.24;20799.66;5033603;28;20317;-62
2022/07/14 06:29:25;;;;;;;7.60;2.28;;;20.40;99.90;;;-141.84;49.31;20840.31;5033355;28;20685;-61
2022/07/14 06:31:55;;;;;;;7.55;2.33;;;20.50;99.90;;;-141.84;49.63;20838.28;5033350;28;20222;-59
2022/07/14 06:34:24;;;;;;;6.07;2.53;;;20.40;99.90;;;-141.84;49.31;20860.66;5033285;28;20229;-62
2022/07/14 06:36:52;;;;;;;7.00;2.70;;;20.50;99.90;;;-141.84;49.44;20811.84;5032887;28;20309;-60
2022/07/14 06:39:20;;;;;;;4.95;2.22;;;20.30;99.90;;;-141.84;49.90;20797.63;5033165;28;20660;-62
2022/07/14 06:41:48;;;;;;;7.47;2.28;;;20.30;99.90;;;-141.84;50.62;20785.44;5033002;28;20309;-61
2022/07/14 06:44:18;;;;;;;7.93;2.50;;;20.20;99.90;;;-141.84;50.61;20777.28;5033855;28;20296;-61
2022/07/14 06:46:54;;;;;;;7.30;2.25;;;20.10;99.90;;;-141.84;50.96;20761.03;5033469;28;20217;-61
2022/07/14 06:49:23;;;;;;;5.65;2.50;;;20.10;99.90;;;-141.84;50.51;20767.13;5033024;28;20230;-61
2022/07/14 06:51:51;;;;;;;7.80;2.28;;;20.10;99.90;;;-141.84;50.08;20805.75;5032262;28;20309;-61
2022/07/14 06:54:23;;;;;;;5.78;2.22;;;20.20;99.90;;;-141.84;49.43;20872.84;5032933;28;20226;-61
2022/07/14 06:56:52;;;;;;;7.47;2.20;;;20.40;99.90;;;-141.84;48.67;20933.81;5032525;28;20670;-61
2022/07/14 06:59:21;;;;;;;6.50;2.22;;;20.60;99.90;;;-141.84;48.66;20901.31;5033114;28;20198;-61
2022/07/14 07:01:49;;;;;;;6.75;2.70;;;20.60;99.90;;;-141.84;48.33;20956.19;5032881;28;20220;-61
2022/07/14 07:04:17;;;;;;;6.60;2.58;;;20.70;99.90;;;-141.84;47.43;20982.63;5032892;28;20328;-61
2022/07/14 07:06:53;;;;;;;6.78;2.55;;;20.90;99.90;;;-141.84;47.48;21043.59;5032566;28;20226;-60
2022/07/14 07:09:21;;;;;;;10.30;2.40;;;21.10;99.90;;;-141.84;46.11;21108.66;5047614;28;20252;-60
2022/07/14 07:11:52;;;;;;;5.97;2.38;;;21.50;99.90;;;-141.84;45.66;21112.72;5052291;28;20227;-61
2022/07/14 07:14:22;;;;;;;3.65;2.10;;;21.50;99.90;;;-141.84;45.95;21141.19;5052454;28;20190;-61
2022/07/14 07:16:52;;;;;;;7.45;2.53;;;21.70;99.90;;;-141.84;45.31;21126.97;5052353;28;20221;-60
2022/07/14 07:19:20;;;;;;;5.75;2.40;;;21.80;99.90;;;-141.84;45.51;21143.22;5043540;28;20222;-62
2022/07/14 07:21:49;;;;;;;7.55;2.88;;;21.90;99.90;;;-141.84;45.41;21155.44;5032019;28;20305;-62
2022/07/14 07:24:17;;;;;;;6.68;2.20;;;21.80;99.90;;;-141.84;45.25;21151.34;5031934;28;20304;-62
2022/07/14 07:26:45;;;;;;;5.15;2.30;;;21.80;99.90;;;-141.84;45.68;21169.66;5031706;28;20253;-63
2022/07/14 07:29:13;;;;;;;8.77;3.03;;;21.70;99.90;;;-141.84;45.94;21133.06;5032579;28;20208;-62
2022/07/14 07:31:43;;;;;;;4.63;2.50;;;21.80;99.90;;;-141.84;46.69;21055.81;5031716;28;20233;-63
2022/07/14 07:34:11;;;;;;;5.70;2.45;;;21.40;99.90;;;-141.84;47.53;21053.78;5032136;28;20229;-60
2022/07/14 07:36:40;;;;;;;6.65;2.42;;;21.20;99.90;;;-141.84;47.48;21063.94;5031678;28;20241;-61
2022/07/14 07:39:28;;;;;;;10.25;2.58;;;21.20;99.90;;;-141.84;47.48;21019.22;5031830;28;20225;-60
2022/07/14 07:41:59;;;;;;;6.38;2.45;;;21.40;99.90;;;-141.84;47.44;21057.84;5031744;28;20225;-61
2022/07/14 07:44:29;;;;;;;11.43;2.70;;;21.40;99.90;;;-141.84;46.35;21076.13;5031790;28;20230;-62
2022/07/14 07:46:59;;;;;;;6.78;2.33;;;21.40;99.90;;;-141.84;46.58;21037.50;5031925;28;20387;-61
2022/07/14 07:49:27;;;;;;;6.80;2.40;;;21.30;99.90;;;-141.84;47.12;21025.31;5031443;28;20237;-63
2022/07/14 07:51:59;;;;;;;10.13;3.25;;;21.30;99.90;;;-141.84;46.63;21084.28;5031120;28;20250;-63
2022/07/14 07:54:29;;;;;;;6.60;2.38;;;21.20;99.90;;;-141.84;46.63;21041.56;5031501;28;20312;-61
2022/07/14 07:57:18;;;;;;;5.28;2.25;;;21.10;99.90;;;-141.84;47.33;21002.94;5031200;28;20229;-61
2022/07/14 07:59:46;;;;;;;8.20;2.50;;;21.10;99.90;;;-141.84;47.53;20954.16;5031118;28;20404;-60
2022/07/14 08:02:16;;;;;;;4.65;2.20;;;21.10;99.90;;;-141.84;47.47;20978.56;5040834;28;20655;-62
2022/07/14 08:04:45;;;;;;;8.52;2.50;;;21.20;99.90;;;-141.84;47.22;21072.06;5051309;28;20225;-61
2022/07/14 08:07:13;;;;;;;6.47;2.63;;;21.30;99.90;;;-141.84;45.54;21179.81;5051045;28;20249;-61
2022/07/14 08:09:41;;;;;;;5.75;2.20;;;21.70;99.90;;;-141.84;45.78;21131.03;5051011;28;20225;-62
2022/07/14 08:12:09;;;;;;;4.50;2.17;;;21.90;99.90;;;-141.84;45.28;21206.25;5051173;28;20304;-63
2022/07/14 08:14:50;;;;;;;9.18;2.83;;;22.00;99.90;;;-141.84;45.50;21122.91;5051211;28;20284;-60
2022/07/14 08:17:22;;;;;;;6.70;2.45;;;21.70;99.90;;;-141.84;45.76;21114.75;5044021;28;20311;-61
2022/07/14 08:19:51;;;;;;;7.18;2.63;;;21.60;99.90;;;-141.84;45.92;21137.13;5023472;28;20230;-61
2022/07/14 08:22:24;;;;;;;7.75;2.40;;;21.50;99.90;;;-141.84;46.98;21041.56;5030793;28;20329;-61
2022/07/14 08:24:54;;;;;;;5.82;2.35;;;21.40;99.90;;;-141.84;47.52;21049.72;5030898;28;20230;-61
2022/07/14 08:27:23;;;;;;;6.13;2.45;;;21.50;99.90;;;-141.84;46.93;21063.94;5030760;28;20388;-60
2022/07/14 08:29:51;;;;;;;6.03;2.28;;;21.50;99.90;;;-141.84;47.03;21011.09;5030745;28;20666;-60
2022/07/14 08:32:38;;;;;;;8.63;2.47;;;21.40;99.90;;;-141.84;45.29;21155.44;5031562;28;20288;-60
2022/07/14 08:35:09;;;;;;;7.07;2.50;;;21.80;99.90;;;-141.84;45.38;21177.78;5030998;28;20210;-60
2022/07/14 08:37:38;;;;;;;5.40;2.20;;;21.80;99.90;;;-141.84;45.18;21216.41;5030528;28;20309;-61
2022/07/14 08:40:10;;;;;;;5.35;2.25;;;22.00;99.90;;;-141.84;45.26;21218.44;5030452;28;20809;-63
2022/07/14 08:42:42;;;;;;;5.30;2.30;;;22.00;99.90;;;-141.84;45.27;21185.91;5030271;28;20321;-63
2022/07/14 08:45:14;;;;;;;6.70;2.30;;;22.20;99.90;;;-141.84;45.32;21167.63;5030860;28;20543;-70
2022/07/14 08:47:45;;;;;;;5.70;2.33;;;22.00;99.90;;;-141.84;45.74;21133.06;5030282;28;20603;-61
2022/07/14 08:50:17;;;;;;;6.10;2.47;;;22.10;99.90;;;-141.84;45.72;21108.66;5030910;28;20202;-61
2022/07/14 08:52:47;;;;;;;6.95;2.85;;;22.00;99.90;;;-141.84;45.95;21122.91;5030285;28;20255;-61
2022/07/14 08:55:19;;;;;;;4.82;2.03;;;22.00;99.90;;;-141.84;46.09;21169.66;5030214;28;20280;-61
2022/07/14 08:57:48;;;;;;;5.82;2.15;;;22.10;99.90;;;-141.84;45.60;21165.59;5033606;28;20724;-63
2022/07/14 09:00:19;;;;;;;6.20;2.45;;;22.20;99.90;;;-141.84;45.38;21206.25;5050395;28;20253;-61
2022/07/14 09:02:51;;;;;;;9.73;2.47;;;22.20;99.90;;;-141.84;44.57;21187.97;5050182;28;20227;-61
2022/07/14 09:05:41;;;;;;;8.88;2.67;;;22.20;99.90;;;-141.84;44.33;21246.91;5049826;28;20205;-61
2022/07/14 09:08:12;;;;;;;6.13;2.22;;;22.40;99.90;;;-141.84;44.87;21200.16;5050665;28;20193;-61
2022/07/14 09:10:43;;;;;;;6.70;2.78;;;22.40;99.90;;;-141.84;44.29;21253.00;5049864;28;20232;-61
2022/07/14 09:13:32;;;;;;;6.72;2.08;;;22.40;99.90;;;-141.84;43.99;21324.19;5049852;28;20642;-62
2022/07/14 09:16:18;;;;;;;6.72;2.88;;;22.60;99.90;;;-141.84;43.20;21354.66;5049946;28;20267;-62
2022/07/14 09:19:05;;;;;;;9.15;2.83;;;22.80;99.90;;;-141.84;43.21;21362.81;5043866;28;20232;-61
2022/07/14 09:21:34;;;;;;;5.60;2.50;;;22.80;99.90;;;-141.84;43.44;21383.13;5030108;28;20237;-62
2022/07/14 09:24:06;;;;;;;3.90;2.50;;;22.80;99.90;;;-141.84;42.84;21395.34;5030151;28;20229;-65
2022/07/14 09:26:44;;;;;;;7.80;2.88;;;22.80;99.90;;;-141.84;43.06;21316.03;5030640;28;20273;-61
2022/07/14 09:29:26;;;;;;;6.82;2.65;;;22.80;99.90;;;-141.84;44.08;21309.94;5031312;28;20277;-62
2022/07/14 09:31:54;;;;;;;7.25;2.70;;;22.80;99.90;;;-141.84;45.00;21236.75;5030285;28;20209;-61
2022/07/14 09:34:31;;;;;;;5.40;2.40;;;22.60;99.90;;;-141.84;44.88;21293.69;5029888;28;20666;-61
2022/07/14 09:37:14;;;;;;;7.35;2.92;;;22.70;99.90;;;-141.84;43.35;21356.69;5030264;28;20284;-62
2022/07/14 09:39:54;;;;;;;7.70;3.08;;;22.80;99.90;;;-141.84;43.47;21324.19;5029767;28;20308;-61
2022/07/14 09:42:57;;;;;;;7.18;2.70;;;22.90;99.90;;;-141.84;43.47;21370.94;5030302;28;20221;-62
2022/07/14 09:45:29;;;;;;;5.28;2.70;;;22.90;99.90;;;-141.84;42.92;21429.91;5028939;28;20728;-61
2022/07/14 09:48:04;;;;;;;8.55;3.72;;;23.00;99.90;;;-141.84;42.45;21405.50;5029372;28;20304;-62
2022/07/14 09:50:37;;;;;;;6.88;2.90;;;23.10;99.90;;;-141.84;43.21;21324.19;5027879;28;20685;-61
2022/07/14 09:53:31;;;;;;;5.88;2.90;;;23.10;99.90;;;-141.84;43.42;21297.75;5030703;28;20229;-61
2022/07/14 09:56:03;;;;;;;8.50;2.95;;;22.90;99.90;;;-141.84;43.73;21293.69;5010803;28;20298;-60
2022/07/14 09:58:33;;;;;;;5.95;2.65;;;22.90;99.90;;;-141.84;44.04;21279.44;5028001;28;20277;-60
2022/07/14 10:01:08;;;;;;;4.20;2.22;;;22.70;99.90;;;-141.84;44.64;21208.28;5030063;28;20660;-63
2022/07/14 10:03:41;;;;;;;7.38;2.88;;;22.60;99.90;;;-141.84;44.76;21216.41;5029869;28;20794;-61
2022/07/14 10:06:12;;;;;;;7.38;2.40;;;22.60;99.90;;;-141.84;44.94;21218.44;5030048;28;20628;-61
2022/07/14 10:09:02;;;;;;;7.53;2.60;;;22.60;99.90;;;-141.84;44.29;21261.16;5029974;28;20226;-61
2022/07/14 10:11:30;;;;;;;7.85;3.00;;;22.50;99.90;;;-141.84;44.24;21248.94;5030251;28;20278;-61
2022/07/14 10:13:59;;;;;;;3.97;2.42;;;22.50;99.90;;;-141.84;44.27;21261.16;5030700;28;20292;-61
2022/07/14 10:16:33;;;;;;;4.20;2.58;;;22.50;99.90;;;-141.84;44.24;21232.69;5029943;28;20284;-62
2022/07/14 10:19:03;;;;;;;4.95;2.33;;;22.60;99.90;;;-141.84;44.04;21255.03;5029842;28;20237;-60
2022/07/14 10:21:45;;;;;;;4.38;2.53;;;22.60;99.90;;;-141.84;44.45;21253.00;5029859;28;20776;-60
2022/07/14 10:24:15;;;;;;;5.78;2.33;;;22.70;99.90;;;-141.84;43.66;21244.88;5029841;28;20773;-62
2022/07/14 10:26:45;;;;;;;4.57;2.75;;;22.60;99.90;;;-141.84;43.88;21285.53;5029976;28;20280;-62